Terminal Aerodrome Forecast
Issued by NWS

Home | Current Version | Previous Version | Graphics & Text | Print | Product List | Glossary On
Versions: 1 2 3 4 5 6 7 8 9 10 11 12 13
863
FTUS43 KICT 081722
TAFSLN
TAF
KSLN 081722Z 0818/0918 34014KT P6SM BKN110
     FM082100 34017KT P6SM SCT050
     FM082300 32011KT P6SM SCT150
     FM090100 30005KT P6SM FEW250=

USA.gov is the U.S. government's official web portal to all federal, state and local government web resources and services.